Time;durP1;ratioP1;P1;durP2;ratioP2;P2;SDS_P1;SDS_P2;PMS_P1;PMS_P2;Temp;Humidity;BMP_temperature;BMP_pressure;BME280_temperature;BME280_humidity;BME280_pressure;Samples;Min_cycle;Max_cycle;Signal;HPM_P1;HPM_P2
2023/01/16 00:02:16;;;;;;;3.83;1.42;;;;;;;3.52;100.00;99547.63;4995159;28;20041;-90
2023/01/16 00:04:42;;;;;;;5.10;1.60;;;;;;;3.51;100.00;99543.34;4991962;28;20037;-90
2023/01/16 00:07:07;;;;;;;5.38;1.73;;;;;;;3.46;100.00;99532.44;4991130;28;20041;-90
2023/01/16 00:09:32;;;;;;;6.25;1.52;;;;;;;3.43;100.00;99535.22;4988781;28;20069;-90
2023/01/16 00:11:58;;;;;;;4.15;1.65;;;;;;;3.40;100.00;99532.84;4993307;28;20030;-90
2023/01/16 00:14:23;;;;;;;4.97;1.60;;;;;;;3.36;100.00;99528.78;4985396;28;20030;-86
2023/01/16 00:16:48;;;;;;;6.95;1.95;;;;;;;3.32;100.00;99529.91;4992867;28;20478;-86
2023/01/16 00:19:14;;;;;;;5.65;1.98;;;;;;;3.27;100.00;99527.59;5007525;28;20038;-86
2023/01/16 00:21:39;;;;;;;7.22;2.20;;;;;;;3.25;100.00;99519.09;5010057;28;20042;-86
2023/01/16 00:24:06;;;;;;;6.18;2.03;;;;;;;3.22;100.00;99518.44;5004048;28;20081;-86
2023/01/16 00:26:32;;;;;;;4.97;1.90;;;;;;;3.22;100.00;99513.25;5007375;28;20043;-86
2023/01/16 00:28:57;;;;;;;7.60;2.35;;;;;;;3.20;100.00;99512.50;4978224;28;20037;-86
2023/01/16 00:31:23;;;;;;;6.05;2.30;;;;;;;3.20;100.00;99515.09;5005268;28;20068;-86
2023/01/16 00:33:49;;;;;;;8.30;2.05;;;;;;;3.18;100.00;99509.16;4992524;28;20041;-85
2023/01/16 00:36:14;;;;;;;9.95;2.67;;;;;;;3.14;100.00;99506.75;4991974;28;20475;-91
2023/01/16 00:38:40;;;;;;;7.70;2.20;;;;;;;3.15;100.00;99513.63;4992362;28;20038;-86
2023/01/16 00:41:05;;;;;;;8.25;2.38;;;;;;;3.12;100.00;99508.63;4992348;28;20103;-85
2023/01/16 00:43:31;;;;;;;9.70;2.72;;;;;;;3.12;100.00;99502.59;4992684;28;20038;-86
2023/01/16 00:45:57;;;;;;;9.10;2.63;;;;;;;3.11;100.00;99495.72;4993250;28;20046;-86
2023/01/16 00:48:23;;;;;;;8.30;2.45;;;;;;;3.09;100.00;99493.22;4989412;28;20726;-85
2023/01/16 00:50:51;;;;;;;9.48;2.65;;;;;;;3.10;100.00;99484.50;4973854;28;20041;-85
2023/01/16 00:53:17;;;;;;;9.98;3.08;;;;;;;3.10;100.00;99484.50;4982391;28;20060;-90
2023/01/16 00:55:42;;;;;;;8.48;2.38;;;;;;;3.10;100.00;99479.31;4989569;28;20022;-86
2023/01/16 00:58:09;;;;;;;8.77;2.40;;;;;;;3.09;100.00;99471.63;5002687;28;20495;-85
2023/01/16 01:00:35;;;;;;;8.30;2.42;;;;;;;3.06;100.00;99472.66;4980921;28;20069;-86
2023/01/16 01:03:02;;;;;;;9.07;2.92;;;;;;;3.04;100.00;99466.72;4993151;28;20080;-87
2023/01/16 01:05:27;;;;;;;9.80;2.30;;;;;;;3.00;100.00;99457.47;4973112;28;20045;-86
2023/01/16 01:07:53;;;;;;;7.03;2.28;;;;;;;2.99;100.00;99449.78;4992664;28;20501;-87
2023/01/16 01:10:21;;;;;;;10.52;2.25;;;;;;;2.97;100.00;99451.63;4991812;28;20034;-86
2023/01/16 01:12:46;;;;;;;6.25;2.13;;;;;;;2.96;100.00;99440.41;5003357;28;20034;-87
2023/01/16 01:15:12;;;;;;;9.55;2.38;;;;;;;2.98;100.00;99446.34;5000949;28;20046;-87
2023/01/16 01:17:38;;;;;;;11.57;2.75;;;;;;;2.93;100.00;99440.63;4995286;28;20502;-85
2023/01/16 01:20:04;;;;;;;8.20;2.10;;;;;;;2.90;100.00;99433.03;4999961;28;20049;-87
2023/01/16 01:22:29;;;;;;;9.73;2.20;;;;;;;2.88;100.00;99431.47;4994503;28;20035;-87
2023/01/16 01:24:55;;;;;;;8.95;2.58;;;;;;;2.85;100.00;99429.91;4995925;28;20037;-88
2023/01/16 01:27:20;;;;;;;12.57;2.70;;;;;;;2.82;100.00;99422.31;4993330;28;20042;-87
2023/01/16 01:29:45;;;;;;;7.05;2.05;;;;;;;2.78;100.00;99410.44;4993511;28;20372;-87
2023/01/16 01:32:11;;;;;;;8.77;2.30;;;;;;;2.76;100.00;99412.28;4993150;28;20034;-86
2023/01/16 01:34:36;;;;;;;6.95;2.35;;;;;;;2.75;100.00;99408.03;5006193;28;20042;-86
2023/01/16 01:37:06;;;;;;;8.27;2.25;;;;;;;2.74;100.00;99403.78;5019502;28;20093;-86
2023/01/16 01:39:32;;;;;;;11.45;2.20;;;;;;;2.73;100.00;99399.50;4996406;28;20030;-89
2023/01/16 01:45:19;;;;;;;7.65;2.45;;;;;;;2.73;100.00;99374.38;5029701;28;20073;-87
2023/01/16 01:47:54;;;;;;;8.32;2.30;;;;;;;2.67;100.00;99364.38;5008327;28;20073;-86
2023/01/16 01:50:28;;;;;;;11.43;2.35;;;;;;;2.65;100.00;99362.84;5014808;28;20073;-87
2023/01/16 01:52:57;;;;;;;8.98;2.22;;;;;;;2.62;100.00;99352.66;5026736;28;20038;-87
2023/01/16 01:55:23;;;;;;;10.57;2.25;;;;;;;2.62;100.00;99357.84;5004665;28;20125;-87
2023/01/16 01:57:55;;;;;;;14.18;2.50;;;;;;;2.58;100.00;99340.81;5000157;28;20042;-87
2023/01/16 02:00:23;;;;;;;8.43;2.20;;;;;;;2.60;100.00;99333.75;4982652;28;20031;-89
2023/01/16 02:02:58;;;;;;;9.20;2.55;;;;;;;2.57;100.00;99333.94;4980279;28;20053;-87
2023/01/16 02:05:29;;;;;;;10.45;2.60;;;;;;;2.51;100.00;99325.63;5012680;28;20173;-86
2023/01/16 02:07:56;;;;;;;5.90;1.85;;;;;;;2.54;100.00;99327.19;4993494;28;20076;-87
2023/01/16 02:10:30;;;;;;;10.02;2.28;;;;;;;2.53;100.00;99322.09;4993794;28;20057;-87
2023/01/16 02:12:57;;;;;;;6.50;1.83;;;;;;;2.54;100.00;99309.03;4994190;28;20061;-87
2023/01/16 02:15:23;;;;;;;8.60;2.20;;;;;;;2.55;100.00;99310.69;4990222;28;20402;-88
2023/01/16 02:20:52;;;;;;;9.00;2.47;;;;;;;2.54;100.00;99297.81;4996048;28;20092;-88
2023/01/16 02:23:37;;;;;;;8.75;2.03;;;;;;;2.57;100.00;99303.63;4992853;28;20038;-89
2023/01/16 02:26:30;;;;;;;14.63;2.72;;;;;;;2.52;100.00;99303.09;4992611;28;20038;-88
2023/01/16 02:29:35;;;;;;;8.27;2.45;;;;;;;2.54;100.00;99283.06;4992671;28;20038;-88
2023/01/16 02:32:20;;;;;;;11.05;2.08;;;;;;;2.53;100.00;99272.78;4989150;28;20066;-88
2023/01/16 02:34:59;;;;;;;6.57;2.15;;;;;;;2.53;100.00;99263.22;4992536;28;20042;-87
2023/01/16 02:37:37;;;;;;;6.72;1.90;;;;;;;2.51;100.00;99252.94;4971978;28;20502;-88
2023/01/16 02:40:21;;;;;;;6.90;2.20;;;;;;;2.51;100.00;99242.56;5003550;28;20037;-88
2023/01/16 02:43:24;;;;;;;7.03;2.00;;;;;;;2.49;100.00;99234.03;5012996;28;20084;-87
2023/01/16 02:46:04;;;;;;;8.15;1.90;;;;;;;2.49;100.00;99221.06;5009965;28;20482;-89
2023/01/16 02:48:38;;;;;;;9.68;2.35;;;;;;;2.50;100.00;99214.13;4996838;28;20088;-88
2023/01/16 02:51:12;;;;;;;7.03;2.22;;;;;;;2.45;100.00;99200.63;4991214;28;20042;-87
2023/01/16 02:53:43;;;;;;;8.40;1.95;;;;;;;2.47;100.00;99198.75;5011271;28;20029;-87
2023/01/16 02:56:19;;;;;;;7.93;2.20;;;;;;;2.46;100.00;99191.91;4995291;28;20038;-88
2023/01/16 02:58:47;;;;;;;6.43;1.98;;;;;;;2.46;100.00;99181.50;4992610;28;20050;-88
2023/01/16 03:01:12;;;;;;;7.63;2.17;;;;;;;2.47;100.00;99176.22;4990698;28;20368;-88
2023/01/16 03:03:42;;;;;;;9.73;2.13;;;;;;;2.44;100.00;99178.19;4973046;28;20030;-87
2023/01/16 03:06:17;;;;;;;8.13;2.50;;;;;;;2.45;100.00;99165.09;4996306;28;20030;-87
2023/01/16 03:08:58;;;;;;;5.57;1.83;;;;;;;2.43;100.00;99156.59;5005528;28;20125;-88
2023/01/16 03:11:29;;;;;;;8.43;2.13;;;;;;;2.44;100.00;99150.47;4976225;28;20046;-89
2023/01/16 03:14:01;;;;;;;10.00;2.40;;;;;;;2.43;100.00;99141.03;5015633;28;20038;-88
2023/01/16 03:17:04;;;;;;;8.18;1.90;;;;;;;2.48;100.00;99131.16;5013558;28;20056;-87
2023/01/16 03:19:55;;;;;;;7.35;2.47;;;;;;;2.48;100.00;99130.31;4995997;28;20032;-89
2023/01/16 03:22:46;;;;;;;7.68;2.20;;;;;;;2.48;100.00;99112.16;4995205;28;20688;-87
2023/01/16 03:25:33;;;;;;;6.43;1.70;;;;;;;2.49;100.00;99109.47;4973564;28;20439;-87
2023/01/16 03:28:11;;;;;;;6.55;2.10;;;;;;;2.51;100.00;99102.41;5002216;28;20045;-87
2023/01/16 03:30:56;;;;;;;8.32;1.80;;;;;;;2.53;100.00;99096.25;4993131;28;20038;-87
2023/01/16 03:33:43;;;;;;;7.50;2.35;;;;;;;2.54;100.00;99078.00;4993617;28;20402;-88
2023/01/16 03:36:35;;;;;;;10.30;2.22;;;;;;;2.57;100.00;99076.94;5001806;28;20411;-87
2023/01/16 03:39:07;;;;;;;7.97;2.10;;;;;;;2.59;100.00;99067.28;4992428;28;20656;-89
2023/01/16 03:41:34;;;;;;;6.75;2.00;;;;;;;2.60;100.00;99061.97;4995574;28;20126;-87
2023/01/16 03:44:07;;;;;;;9.13;2.50;;;;;;;2.63;100.00;99055.75;4994492;28;20038;-87
2023/01/16 03:46:41;;;;;;;10.75;2.30;;;;;;;2.61;100.00;99044.63;4976829;28;20137;-87
2023/01/16 03:49:11;;;;;;;8.32;1.80;;;;;;;2.62;100.00;99038.50;4993990;28;20046;-87
2023/01/16 03:51:44;;;;;;;7.28;2.00;;;;;;;2.63;100.00;99027.19;4995351;28;20045;-87
2023/01/16 03:54:47;;;;;;;10.18;2.45;;;;;;;2.68;100.00;99004.31;5012612;28;20061;-88
2023/01/16 03:57:27;;;;;;;9.20;2.45;;;;;;;2.69;100.00;98995.59;4991072;28;20046;-87
2023/01/16 03:59:54;;;;;;;10.35;2.55;;;;;;;2.69;100.00;98978.25;4987362;28;20037;-87
2023/01/16 04:02:28;;;;;;;9.38;2.83;;;;;;;2.73;100.00;98986.63;4993250;28;20188;-87
2023/01/16 04:05:08;;;;;;;6.32;2.20;;;;;;;2.74;100.00;98972.72;5003232;28;20556;-87
2023/01/16 04:07:43;;;;;;;9.45;2.80;;;;;;;2.72;100.00;98970.22;5000334;28;20133;-87
2023/01/16 04:10:17;;;;;;;11.15;2.40;;;;;;;2.73;100.00;98965.88;4989104;28;20053;-86
2023/01/16 04:12:50;;;;;;;6.90;1.92;;;;;;;2.74;100.00;98962.34;4996961;28;20040;-89
2023/01/16 04:15:16;;;;;;;;;;;;;;;2.80;100.00;98952.34;4995100;28;20033;-86
2023/01/16 04:17:42;;;;;;;7.97;2.38;;;;;;;2.74;100.00;98933.78;5010463;28;20293;-86
2023/01/16 04:20:08;;;;;;;8.07;2.38;;;;;;;2.75;100.00;98932.84;4996935;28;20040;-85
2023/01/16 04:22:34;;;;;;;13.45;3.00;;;;;;;2.78;100.00;98930.84;4996840;28;20034;-86
2023/01/16 04:25:04;;;;;;;10.65;2.67;;;;;;;2.79;100.00;98918.69;4995775;28;20034;-86
2023/01/16 04:27:29;;;;;;;7.97;2.88;;;;;;;2.80;100.00;98904.75;5027282;28;20105;-86
2023/01/16 04:29:55;;;;;;;10.43;3.05;;;;;;;2.83;100.00;98894.19;5014574;28;20525;-86
2023/01/16 04:32:21;;;;;;;10.65;2.95;;;;;;;2.85;100.00;98889.69;4992499;28;20038;-86
2023/01/16 04:34:46;;;;;;;11.80;3.10;;;;;;;2.84;100.00;98885.44;4996740;28;20025;-87
2023/01/16 04:37:13;;;;;;;11.13;3.33;;;;;;;2.87;100.00;98876.59;5004149;28;20117;-87
2023/01/16 04:39:40;;;;;;;8.20;2.58;;;;;;;2.87;100.00;98861.00;4992520;28;20038;-86
2023/01/16 04:42:05;;;;;;;9.48;2.85;;;;;;;2.89;100.00;98852.16;4991572;28;20046;-87
2023/01/16 04:44:31;;;;;;;12.60;3.10;;;;;;;2.94;100.00;98839.66;4993327;28;20502;-86
2023/01/16 04:46:56;;;;;;;11.13;3.25;;;;;;;2.96;100.00;98827.38;4990815;28;20509;-87
2023/01/16 04:49:21;;;;;;;9.57;2.65;;;;;;;3.00;100.00;98818.41;5005205;28;20026;-86
2023/01/16 04:51:47;;;;;;;10.95;2.88;;;;;;;3.02;100.00;98806.13;4995910;28;20042;-86
2023/01/16 04:54:17;;;;;;;10.98;2.55;;;;;;;3.03;100.00;98802.59;5011646;28;20651;-86
2023/01/16 04:56:43;;;;;;;9.93;2.60;;;;;;;3.07;100.00;98778.03;4974195;28;20035;-85
2023/01/16 04:59:09;;;;;;;9.88;2.72;;;;;;;3.09;100.00;98776.16;4996006;28;20040;-86
2023/01/16 05:01:37;;;;;;;7.28;2.20;;;;;;;3.11;100.00;98763.88;4992801;28;20100;-87
2023/01/16 05:04:04;;;;;;;10.70;2.58;;;;;;;3.15;100.00;98764.44;4990936;28;20027;-86
2023/01/16 05:06:29;;;;;;;8.60;2.72;;;;;;;3.18;100.00;98755.59;4992455;28;20070;-87
2023/01/16 05:08:55;;;;;;;6.47;2.13;;;;;;;3.21;100.00;98745.81;4997603;28;20054;-87
2023/01/16 05:11:20;;;;;;;7.78;2.20;;;;;;;3.24;100.00;98736.97;5008935;28;20456;-86
2023/01/16 05:13:46;;;;;;;8.32;2.47;;;;;;;3.26;100.00;98741.09;4991629;28;20042;-88
2023/01/16 05:16:11;;;;;;;5.97;1.95;;;;;;;3.27;100.00;98727.16;4973633;28;20022;-86
2023/01/16 05:18:37;;;;;;;11.30;2.65;;;;;;;3.34;100.00;98717.09;5002031;28;20030;-87
2023/01/16 05:21:05;;;;;;;9.45;2.45;;;;;;;3.35;100.00;98705.75;4991195;28;20034;-88
2023/01/16 05:23:35;;;;;;;10.20;2.55;;;;;;;3.38;100.00;98695.94;4990524;28;20495;-86
2023/01/16 05:26:01;;;;;;;6.40;2.20;;;;;;;3.42;100.00;98688.72;5004473;28;20096;-85
2023/01/16 05:28:27;;;;;;;8.30;2.22;;;;;;;3.42;100.00;98675.72;4991456;28;20043;-85
2023/01/16 05:30:53;;;;;;;10.43;2.65;;;;;;;3.46;100.00;98675.34;4991420;28;20049;-87
2023/01/16 05:33:21;;;;;;;8.20;2.35;;;;;;;3.46;100.00;98658.94;4992577;28;20402;-85
2023/01/16 05:35:47;;;;;;;8.23;2.47;;;;;;;3.46;100.00;98643.34;5004701;28;20042;-86
2023/01/16 05:38:13;;;;;;;8.30;2.30;;;;;;;3.48;100.00;98631.03;4990963;28;20101;-85
2023/01/16 05:40:39;;;;;;;8.10;2.03;;;;;;;3.51;100.00;98620.41;4996398;28;20049;-85
2023/01/16 05:43:04;;;;;;;10.60;2.40;;;;;;;3.52;100.00;98616.84;5011532;28;20030;-87
2023/01/16 05:45:30;;;;;;;8.63;2.28;;;;;;;3.51;100.00;98617.78;5007907;28;20042;-86
2023/01/16 05:47:55;;;;;;;7.00;2.15;;;;;;;3.51;100.00;98599.59;5003258;28;20156;-85
2023/01/16 05:50:21;;;;;;;10.63;2.65;;;;;;;3.54;100.00;98594.16;4990857;28;20058;-88
2023/01/16 05:52:46;;;;;;;6.45;2.20;;;;;;;3.55;100.00;98588.00;4997090;28;20034;-86
2023/01/16 05:55:11;;;;;;;6.65;2.15;;;;;;;3.57;100.00;98580.91;4980099;28;20125;-87
2023/01/16 05:57:37;;;;;;;6.38;1.90;;;;;;;3.59;100.00;98581.59;4971354;28;20041;-86
2023/01/16 06:00:04;;;;;;;9.32;2.10;;;;;;;3.60;100.00;98578.06;4992411;28;20048;-86
2023/01/16 06:02:29;;;;;;;11.15;2.30;;;;;;;3.60;100.00;98567.69;4994187;28;20065;-86
2023/01/16 06:04:55;;;;;;;8.30;2.13;;;;;;;3.63;100.00;98567.41;4990865;28;20035;-87
2023/01/16 06:07:21;;;;;;;6.25;2.00;;;;;;;3.62;100.00;98560.56;5002586;28;20069;-87
2023/01/16 06:09:46;;;;;;;8.38;1.85;;;;;;;3.65;100.00;98560.31;4990392;28;20110;-87
2023/01/16 06:12:16;;;;;;;10.10;1.98;;;;;;;3.63;100.00;98551.81;4990949;28;20050;-87
2023/01/16 06:14:42;;;;;;;6.10;1.63;;;;;;;3.64;100.00;98548.28;4990766;28;20038;-88
2023/01/16 06:17:07;;;;;;;10.75;2.05;;;;;;;3.66;100.00;98542.94;4992029;28;20084;-87
2023/01/16 06:19:32;;;;;;;8.95;2.17;;;;;;;3.66;100.00;98520.38;4991282;28;20439;-85
2023/01/16 06:21:58;;;;;;;4.75;2.08;;;;;;;3.65;100.00;98526.53;4993698;28;20113;-88
2023/01/16 06:24:23;;;;;;;6.85;2.03;;;;;;;3.65;100.00;98517.91;4991643;28;20149;-87
2023/01/16 06:26:48;;;;;;;5.72;1.50;;;;;;;3.64;100.00;98514.47;4960949;28;20134;-86
2023/01/16 06:29:14;;;;;;;11.50;2.50;;;;;;;3.64;100.00;98504.06;4952737;28;20031;-89
2023/01/16 06:31:39;;;;;;;6.25;1.80;;;;;;;3.63;100.00;98505.03;4986778;28;20112;-85
2023/01/16 06:34:05;;;;;;;10.07;1.95;;;;;;;3.63;100.00;98497.22;4992170;28;20515;-86
2023/01/16 06:36:30;;;;;;;7.45;2.00;;;;;;;3.61;100.00;98491.31;4990973;28;20023;-90
2023/01/16 06:38:56;;;;;;;4.38;1.50;;;;;;;3.60;100.00;98473.22;4989945;28;20070;-85
2023/01/16 06:41:21;;;;;;;8.38;1.80;;;;;;;3.60;100.00;98468.88;4974077;28;20898;-85
2023/01/16 06:43:46;;;;;;;7.25;2.10;;;;;;;3.61;100.00;98449.72;4968069;28;20035;-84
2023/01/16 06:46:12;;;;;;;8.32;1.90;;;;;;;3.59;100.00;98445.56;4970368;28;20050;-89
2023/01/16 06:48:37;;;;;;;12.18;2.47;;;;;;;3.56;100.00;98427.63;4982775;28;20145;-86
2023/01/16 06:51:03;;;;;;;5.78;1.90;;;;;;;3.56;100.00;98412.88;4987774;28;20034;-84
2023/01/16 06:53:29;;;;;;;6.40;1.77;;;;;;;3.54;100.00;98399.16;4982710;28;20061;-88
2023/01/16 06:55:54;;;;;;;6.57;1.77;;;;;;;3.56;100.00;98394.66;4975953;28;20105;-87
2023/01/16 06:58:19;;;;;;;6.90;2.00;;;;;;;3.56;100.00;98388.66;4987171;28;20042;-85
2023/01/16 07:00:50;;;;;;;7.57;2.25;;;;;;;3.54;100.00;98370.56;4960955;28;20035;-85
2023/01/16 07:03:16;;;;;;;5.20;1.48;;;;;;;3.56;100.00;98366.06;4965834;28;20508;-85
2023/01/16 07:05:43;;;;;;;5.22;1.58;;;;;;;3.56;100.00;98371.28;4963301;28;20067;-84
2023/01/16 07:08:08;;;;;;;5.88;1.50;;;;;;;3.53;100.00;98348.13;4983717;28;20362;-86
2023/01/16 07:10:33;;;;;;;4.82;1.42;;;;;;;3.56;100.00;98347.06;4962937;28;20491;-85
2023/01/16 07:12:59;;;;;;;10.00;1.85;;;;;;;3.56;100.00;98337.47;4970915;28;20443;-84
2023/01/16 07:23:50;;;;;;;7.88;1.75;;;;;;;3.55;100.00;98296.00;4969315;28;20101;-85
2023/01/16 07:26:21;;;;;;;5.97;1.38;;;;;;;3.57;100.00;98288.91;4970004;28;20129;-84
2023/01/16 07:28:49;;;;;;;3.03;1.35;;;;;;;3.57;100.00;98288.91;4966108;28;20129;-84
2023/01/16 07:31:15;;;;;;;5.20;1.50;;;;;;;3.56;100.00;98277.69;4971958;28;20038;-84
2023/01/16 07:33:40;;;;;;;4.00;1.20;;;;;;;3.56;100.00;98275.09;4989257;28;20117;-84
2023/01/16 07:36:05;;;;;;;5.07;1.52;;;;;;;3.58;100.00;98270.56;4971950;28;20122;-84
2023/01/16 07:38:31;;;;;;;4.28;1.50;;;;;;;3.59;100.00;98250.59;4980633;28;20046;-84
2023/01/16 07:40:56;;;;;;;5.78;1.63;;;;;;;3.60;100.00;98255.69;4979426;28;20491;-85
2023/01/16 07:43:23;;;;;;;5.57;1.50;;;;;;;3.61;100.00;98248.72;4968129;28;20085;-85
2023/01/16 07:45:52;;;;;;;5.13;1.58;;;;;;;3.62;100.00;98243.38;4970330;28;20038;-84
2023/01/16 07:48:22;;;;;;;4.35;1.50;;;;;;;3.63;100.00;98236.41;4962545;28;20043;-90
2023/01/16 07:50:51;;;;;;;4.75;1.60;;;;;;;3.63;100.00;98237.22;4973527;28;20701;-91
2023/01/16 07:53:21;;;;;;;4.00;1.40;;;;;;;3.65;100.00;98221.50;4983220;28;20034;-89
2023/01/16 07:55:53;;;;;;;8.80;1.60;;;;;;;3.64;100.00;98223.28;4979117;28;20450;-84
2023/01/16 07:58:20;;;;;;;5.22;1.58;;;;;;;3.62;100.00;98214.78;4990130;28;20046;-85
2023/01/16 08:00:46;;;;;;;5.40;1.63;;;;;;;3.64;100.00;98205.06;4980793;28;20062;-85
2023/01/16 08:03:13;;;;;;;6.28;1.75;;;;;;;3.65;100.00;98196.31;4972327;28;20165;-84
2023/01/16 08:05:38;;;;;;;5.13;1.35;;;;;;;3.64;100.00;98189.47;4965564;28;20042;-85
2023/01/16 08:08:04;;;;;;;4.38;1.60;;;;;;;3.64;100.00;98179.06;4977897;28;20030;-84
2023/01/16 08:10:29;;;;;;;6.53;1.52;;;;;;;3.63;100.00;98161.84;4973383;28;20042;-84
2023/01/16 08:12:55;;;;;;;5.47;1.73;;;;;;;3.64;100.00;98162.66;4974575;28;20078;-85
2023/01/16 08:15:20;;;;;;;4.38;1.50;;;;;;;3.66;100.00;98156.34;4976869;28;20396;-85
2023/01/16 08:17:45;;;;;;;3.97;1.48;;;;;;;3.66;100.00;98156.34;4981803;28;20030;-85
2023/01/16 08:20:11;;;;;;;4.47;1.50;;;;;;;3.65;100.00;98154.72;4993111;28;20038;-85
2023/01/16 08:22:44;;;;;;;4.90;1.48;;;;;;;3.65;100.00;98146.09;4992622;28;20038;-85
2023/01/16 08:25:10;;;;;;;5.45;1.70;;;;;;;3.66;100.00;98143.34;4992513;28;20042;-85
2023/01/16 08:27:35;;;;;;;4.28;1.70;;;;;;;3.68;100.00;98138.84;4991976;28;20500;-85
2023/01/16 08:30:01;;;;;;;5.93;1.40;;;;;;;3.67;100.00;98131.19;4993101;28;20458;-86
2023/01/16 08:32:27;;;;;;;5.13;1.90;;;;;;;3.67;100.00;98126.81;4991181;28;20049;-85
2023/01/16 08:34:52;;;;;;;4.40;1.58;;;;;;;3.68;100.00;98119.81;4971011;28;20034;-85
2023/01/16 08:37:17;;;;;;;3.92;1.38;;;;;;;3.69;100.00;98114.47;4964472;28;20026;-85
2023/01/16 08:39:43;;;;;;;5.25;1.40;;;;;;;3.67;100.00;98106.00;4972189;28;20037;-85
2023/01/16 08:53:05;;;;;;;4.95;1.20;;;;;;;3.72;100.00;98109.00;4975546;28;20438;-87
2023/01/16 08:55:31;;;;;;;3.10;1.20;;;;;;;3.74;100.00;98088.88;4954712;28;20031;-86
2023/01/16 08:57:59;;;;;;;9.80;1.80;;;;;;;3.77;100.00;98086.00;4973113;28;20077;-85
2023/01/16 09:00:26;;;;;;;2.63;1.20;;;;;;;3.75;100.00;98085.31;4949167;28;20035;-84
2023/01/16 09:02:52;;;;;;;2.20;1.10;;;;;;;3.76;100.00;98097.38;4967826;28;20113;-86
2023/01/16 09:05:17;;;;;;;4.05;1.30;;;;;;;3.75;100.00;98085.31;4972276;28;20555;-86
2023/01/16 09:07:43;;;;;;;1.98;1.05;;;;;;;3.73;100.00;98087.25;4971756;28;20031;-84
2023/01/16 09:10:09;;;;;;;1.40;0.85;;;;;;;3.74;100.00;98075.88;4972263;28;20031;-86
2023/01/16 09:15:21;;;;;;;2.08;0.80;;;;;;;3.72;100.00;98076.97;4955824;28;20037;-86
2023/01/16 09:17:55;;;;;;;2.70;1.00;;;;;;;3.72;100.00;98082.19;4970802;28;20039;-86
2023/01/16 09:20:21;;;;;;;1.85;0.75;;;;;;;3.72;100.00;98075.19;4955751;28;20039;-85
2023/01/16 09:22:46;;;;;;;1.55;0.82;;;;;;;3.71;100.00;98068.38;4971928;28;20039;-86
2023/01/16 09:25:12;;;;;;;1.83;0.80;;;;;;;3.72;100.00;98061.38;4973174;28;20039;-86
2023/01/16 09:27:37;;;;;;;1.25;0.68;;;;;;;3.73;100.00;98068.22;4973612;28;20100;-86
2023/01/16 09:30:04;;;;;;;1.50;0.70;;;;;;;3.74;100.00;98064.66;4970940;28;20062;-84
2023/01/16 09:32:29;;;;;;;1.10;0.70;;;;;;;3.75;100.00;98055.91;4976514;28;20035;-84
2023/01/16 09:34:55;;;;;;;1.55;0.68;;;;;;;3.78;100.00;98055.63;4975701;28;20101;-86
2023/01/16 09:37:21;;;;;;;1.30;0.80;;;;;;;3.77;100.00;98060.00;4969209;28;20110;-87
2023/01/16 09:39:46;;;;;;;1.20;0.70;;;;;;;3.79;100.00;98052.06;4957704;28;20500;-87
2023/01/16 09:45:40;;;;;;;1.25;0.70;;;;;;;3.85;100.00;98050.69;4971039;28;20061;-86
2023/01/16 09:48:21;;;;;;;1.58;0.70;;;;;;;3.86;100.00;98047.94;4971847;28;20043;-87
2023/01/16 09:50:52;;;;;;;0.75;0.50;;;;;;;3.86;100.00;98039.31;4971974;28;20500;-86
2023/01/16 09:59:47;;;;;;;1.23;0.50;;;;;;;3.96;100.00;98037.50;4971383;28;20404;-86
2023/01/16 10:02:32;;;;;;;1.20;0.50;;;;;;;3.99;100.00;98032.00;4954388;28;20043;-86
2023/01/16 10:05:00;;;;;;;0.80;0.40;;;;;;;4.01;100.00;98030.94;4961949;28;20114;-88
2023/01/16 10:07:34;;;;;;;0.75;0.40;;;;;;;4.07;100.00;98022.56;4971914;28;20070;-86
2023/01/16 10:10:37;;;;;;;0.77;0.50;;;;;;;4.14;100.00;98022.81;4972578;28;20039;-86
2023/01/16 10:13:14;;;;;;;1.40;0.50;;;;;;;4.23;100.00;98008.94;5001142;28;20090;-86
2023/01/16 10:16:07;;;;;;;1.50;0.60;;;;;;;4.36;100.00;98001.63;4972693;28;20066;-86
2023/01/16 10:19:27;;;;;;;1.58;0.60;;;;;;;4.53;100.00;98000.03;4945527;29;20035;-86
2023/01/16 10:22:09;;;;;;;0.80;0.50;;;;;;;4.67;100.00;97993.50;4966081;28;20061;-86
2023/01/16 10:24:41;;;;;;;;;;;;;;;4.77;100.00;97983.84;4982207;28;20185;-86
2023/01/16 10:27:15;;;;;;;1.45;0.60;;;;;;;4.80;100.00;97986.16;4980092;28;19924;-86
2023/01/16 10:29:52;;;;;;;1.58;0.47;;;;;;;4.83;100.00;97979.84;4986541;28;20034;-86
2023/01/16 10:32:32;;;;;;;2.17;0.75;;;;;;;4.80;100.00;97974.91;4970239;28;20038;-86
2023/01/16 10:35:03;;;;;;;0.90;0.50;;;;;;;4.82;100.00;97960.81;4980441;28;20093;-86
2023/01/16 10:37:29;;;;;;;0.52;0.40;;;;;;;4.87;100.00;97961.19;4973737;28;20089;-86
2023/01/16 10:39:58;;;;;;;1.33;0.50;;;;;;;4.90;100.00;97960.88;4973404;28;20924;-85
2023/01/16 10:51:01;;;;;;;1.27;0.60;;;;;;;4.93;100.00;97937.13;4965059;28;20041;-85
2023/01/16 10:53:27;;;;;;;1.58;0.68;;;;;;;4.95;100.00;97934.38;4990294;28;20526;-85
2023/01/16 10:55:55;;;;;;;1.20;0.50;;;;;;;4.96;100.00;97923.81;4975137;28;20061;-86
2023/01/16 10:58:40;;;;;;;1.02;0.70;;;;;;;4.97;100.00;97922.84;4987151;28;20042;-85
2023/01/16 11:01:21;;;;;;;1.52;0.57;;;;;;;4.98;100.00;97916.66;4979148;28;20043;-85
2023/01/16 11:03:49;;;;;;;0.77;0.47;;;;;;;4.95;100.00;97911.75;4978198;28;20586;-85
2023/01/16 11:06:22;;;;;;;0.43;0.40;;;;;;;4.92;100.00;97906.84;4991558;28;20251;-85
2023/01/16 11:08:52;;;;;;;0.95;0.60;;;;;;;4.92;100.00;97901.63;4978756;28;20043;-85
2023/01/16 11:20:34;;;;;;;0.88;0.50;;;;;;;5.11;100.00;97865.94;4966315;28;20105;-85
2023/01/16 11:23:15;;;;;;;1.02;0.57;;;;;;;5.12;100.00;97862.34;4972293;28;20038;-85
2023/01/16 11:25:42;;;;;;;1.17;0.60;;;;;;;5.12;100.00;97839.72;4977937;28;20457;-85
2023/01/16 11:28:12;;;;;;;0.90;0.68;;;;;;;5.15;99.42;97851.63;4990184;28;20138;-85
2023/01/16 11:30:43;;;;;;;1.70;0.50;;;;;;;5.16;100.00;97840.22;4968178;28;20049;-85
2023/01/16 11:33:16;;;;;;;0.70;0.50;;;;;;;5.16;100.00;97835.81;4972783;28;20051;-85
2023/01/16 11:35:50;;;;;;;1.55;0.65;;;;;;;5.19;100.00;97829.50;4974596;28;20066;-85
2023/01/16 11:38:17;;;;;;;0.75;0.47;;;;;;;5.21;100.00;97817.16;4980900;28;20041;-85
2023/01/16 11:40:46;;;;;;;0.82;0.65;;;;;;;5.20;100.00;97818.09;4983632;28;20050;-85
2023/01/16 11:46:12;;;;;;;1.02;0.60;;;;;;;5.16;100.00;97804.56;4977882;28;20077;-86
2023/01/16 11:48:44;;;;;;;1.65;0.70;;;;;;;5.17;100.00;97800.16;4973827;28;20042;-85
2023/01/16 11:51:15;;;;;;;2.05;0.68;;;;;;;5.18;100.00;97804.41;4973408;28;20565;-86
2023/01/16 11:53:45;;;;;;;1.13;0.70;;;;;;;5.16;100.00;97794.13;4967613;28;20031;-86
2023/01/16 11:56:44;;;;;;;1.58;0.80;;;;;;;5.18;100.00;97793.97;4971454;28;20058;-86
2023/01/16 11:59:41;;;;;;;1.65;0.70;;;;;;;5.17;100.00;97780.13;4981554;28;20401;-86
2023/01/16 12:02:26;;;;;;;2.13;0.90;;;;;;;5.17;100.00;97782.72;4979507;28;20055;-86
2023/01/16 12:08:05;;;;;;;0.98;0.68;;;;;;;5.21;100.00;97770.25;4970193;28;20037;-85
2023/01/16 12:10:42;;;;;;;0.70;0.60;;;;;;;5.24;100.00;97760.31;4978698;28;20484;-87
2023/01/16 12:16:38;;;;;;;3.72;1.10;;;;;;;5.38;100.00;97747.66;4972892;28;20478;-86
2023/01/16 12:19:44;;;;;;;0.80;0.55;;;;;;;5.40;100.00;97750.94;4953828;28;20046;-86
2023/01/16 12:22:37;;;;;;;0.60;0.60;;;;;;;5.43;100.00;97743.59;4970195;28;20618;-85
2023/01/16 12:25:06;;;;;;;1.52;0.63;;;;;;;5.45;100.00;97744.25;4971853;28;20503;-86
2023/01/16 12:27:47;;;;;;;1.50;0.60;;;;;;;5.49;100.00;97742.16;4972469;28;20050;-86
2023/01/16 12:30:29;;;;;;;1.27;0.40;;;;;;;5.53;100.00;97728.63;4972941;28;20395;-86
2023/01/16 12:33:18;;;;;;;0.50;0.40;;;;;;;5.59;100.00;97721.97;4971783;28;20057;-86
2023/01/16 12:35:49;;;;;;;0.47;0.40;;;;;;;5.66;100.00;97718.59;4959851;28;20039;-87
2023/01/16 12:38:26;;;;;;;1.27;0.40;;;;;;;5.72;100.00;97711.09;4976545;28;20041;-87
2023/01/16 12:44:01;;;;;;;1.08;0.40;;;;;;;5.85;99.40;97706.22;4975067;28;20050;-86
2023/01/16 12:46:45;;;;;;;0.70;0.52;;;;;;;5.91;98.72;97703.00;4982699;28;20049;-87
2023/01/16 12:49:39;;;;;;;0.60;0.40;;;;;;;5.96;98.83;97687.66;4978864;28;20034;-87
2023/01/16 12:52:47;;;;;;;0.50;0.40;;;;;;;6.00;97.35;97686.38;4967626;28;20030;-87
2023/01/16 12:55:12;;;;;;;0.30;0.30;;;;;;;5.98;97.15;97681.31;4959875;28;20042;-86
2023/01/16 12:57:52;;;;;;;0.40;0.30;;;;;;;5.96;96.95;97661.56;4971780;28;20034;-87
2023/01/16 13:00:23;;;;;;;0.70;0.40;;;;;;;5.98;97.11;97662.22;4971228;28;20042;-87